• Join FlightAware (Why Join?)
  • Login
  • US Flag 
01:51PM EST


 

Airport Tracker/Info


-or-


 

Live Flight TrackerFlight Track Log ✈ SWA3943 ✈ 02-Jan-2014 ✈ KMDW - KPHX

Flight Track Log - Related Links

Times and Time Zones

All times are in EST time to prevent confusion due to time zone crossing. See the SWA3943 flight status page for this flight to view local times or setup timezone preferences in your user account.

Time Position Orientation Groundspeed Altitude Reporting Facility
EST Latitude Longitude Course Direction KTS MPH feet Rate Location/Type
12:18AM 41.8000 -87.7833 236° Southwest 141 162 2,100  Level Chicago TRACON
12:19AM 41.7667 -87.8500 236° Southwest 212 244 3,000 900 Climbing Chicago TRACON
12:20AM 41.7500 -87.9167 251° West 222 255 4,000 420 Climbing Chicago TRACON
12:21AM 41.7333 -88.0000 255° West 243 280 4,000 660 Level Chicago TRACON
12:22AM 41.7269 -88.0853 264° West 241 277 5,300 2,640 Climbing Chicago Center
12:23AM 41.7386 -88.1769 280° West 250 288 9,200 3,600 Climbing Chicago Center
12:24AM 41.7458 -88.2717 276° West 254 292 12,600 2,760 Climbing Chicago Center
12:25AM 41.7578 -88.3839 278° West 286 329 14,800 2,580 Climbing Chicago Center
12:26AM 41.7678 -88.5047 276° West 321 369 17,900 2,640 Climbing Chicago Center
12:27AM 41.7803 -88.6317 278° West 337 388 20,200 2,460 Climbing Chicago Center
12:28AM 41.7919 -88.7622 277° West 349 402 22,900 2,460 Climbing Chicago Center
12:29AM 41.7800 -88.9289 265° West 380 437 25,200 2,040 Climbing Chicago Center
12:30AM 41.7608 -89.0767 260° West 397 457 27,100 1,740 Climbing Chicago Center
12:31AM 41.7397 -89.2261 259° West 405 466 28,800 1,740 Climbing Chicago Center
12:32AM 41.7200 -89.3769 260° West 412 474 30,700 1,860 Climbing Chicago Center
12:33AM 41.7000 -89.5253 260° West 408 470 32,600 1,620 Climbing Chicago Center
12:34AM 41.6800 -89.6778 260° West 407 468 34,000 660 Climbing Chicago Center
12:35AM 41.6428 -89.8225 251° West 412 474 34,000  Level Chicago Center
12:36AM 41.5958 -89.9675 247° West 423 487 34,000 120 Level Chicago Center
12:37AM 41.5503 -90.1100 247° West 421 484 34,300 780 Climbing Chicago Center
12:38AM 41.5042 -90.2519 247° West 419 482 35,700 1,320 Climbing Chicago Center
12:39AM 41.4581 -90.3914 246° West 415 478 37,000 1,020 Climbing Chicago Center
12:40AM 41.4142 -90.5286 247° West 408 470 37,800 480 Climbing Chicago Center
12:41AM 41.3678 -90.6706 247° West 416 479 38,000 60 Climbing Chicago Center
12:42AM 41.3197 -90.8122 246° West 419 482 38,000  Level Chicago Center
12:43AM 41.2739 -90.9514 246° West 415 478 38,000  Level Chicago Center
12:44AM 41.2269 -91.0903 246° West 413 475 38,000  Level Chicago Center
12:45AM 41.1814 -91.2261 246° West 408 470 38,000  Level Chicago Center
12:46AM 41.1361 -91.3608 246° West 403 464 38,000  Level Chicago Center
12:47AM 41.0808 -91.5247 246° West 404 465 38,000  Level Chicago Center
12:48AM 41.0331 -91.6619 245° Southwest 410 472 38,000  Level Chicago Center
12:49AM 40.9919 -91.8017 249° West 406 467 38,000  Level Chicago Center
12:50AM 40.9581 -91.9436 257° West 405 466 38,000  Level Chicago Center
12:51AM 40.9219 -92.0831 251° West 405 466 38,000  Level Chicago Center
12:52AM 40.8858 -92.2236 251° West 406 467 38,000  Level Chicago Center
12:53AM 40.8503 -92.3625 251° West 405 466 38,000  Level Chicago Center
12:54AM 40.8150 -92.5000 251° West 400 460 38,000  Level Chicago Center
12:55AM 40.7797 -92.6372 251° West 400 460 38,000  Level Chicago Center
12:56AM 40.7458 -92.7736 252° West 397 457 38,000  Level Chicago Center
12:57AM 40.7089 -92.9103 250° West 401 461 38,000  Level Chicago Center
12:58AM 40.6731 -93.0475 251° West 399 459 38,000  Level Chicago Center
12:59AM 40.6381 -93.1858 252° West 402 463 38,000  Level Chicago Center
01:00AM 40.5933 -93.3511 250° West 403 464 38,000  Level Chicago Center
01:01AM 40.5575 -93.4900 251° West 403 464 38,000  Level Chicago Center
01:02AM 40.5189 -93.6283 250° West 406 467 38,000  Level Chicago Center
01:03AM 40.4817 -93.7656 250° West 403 464 38,000  Level Chicago Center
01:04AM 40.4453 -93.9022 251° West 399 459 38,000  Level Chicago Center
01:05AM 40.4094 -94.0367 251° West 394 453 38,000  Level Chicago Center
01:06AM 40.3728 -94.1708 250° West 393 452 38,000  Level Chicago Center
01:07AM 40.3361 -94.3028 250° West 389 448 38,000  Level Chicago Center
01:09AM 40.2828 -94.4894 250° West 389 448 38,000  Level Minneapolis Center
01:10AM 40.2475 -94.6214 251° West 389 448 38,000  Level Minneapolis Center
01:11AM 40.2117 -94.7522 250° West 386 444 38,000  Level Minneapolis Center
01:12AM 40.1739 -94.8856 250° West 386 444 38,000  Level Minneapolis Center
01:13AM 40.1369 -95.0217 250° West 390 449 38,000  Level Minneapolis Center
01:14AM 40.0936 -95.1711 249° West 399 459 38,000  Level Kansas City Center
01:15AM 40.0572 -95.2986 250° West 394 453 38,000  Level Kansas City Center
01:16AM 40.0203 -95.4267 249° West 395 455 38,000  Level Kansas City Center
01:17AM 39.9778 -95.5769 250° West 396 456 38,000  Level Kansas City Center
01:18AM 39.9419 -95.7022 250° West 391 450 38,000  Level Kansas City Center
01:19AM 39.9042 -95.8283 249° West 390 449 38,000  Level Kansas City Center
01:20AM 39.8617 -95.9742 249° West 387 445 38,000  Level Kansas City Center
01:21AM 39.8250 -96.0997 249° West 388 447 38,000  Level Kansas City Center
01:22AM 39.7875 -96.2244 249° West 388 447 38,000  Level Kansas City Center
01:23AM 39.7439 -96.3717 249° West 392 451 38,000  Level Kansas City Center
01:24AM 39.7064 -96.4986 249° West 394 453 38,000  Level Kansas City Center
01:25AM 39.6683 -96.6250 249° West 393 452 38,000  Level Kansas City Center
01:26AM 39.6239 -96.7706 248° West 390 449 38,000  Level Kansas City Center
01:27AM 39.5894 -96.8814 248° West 388 447 38,000  Level Kansas City Center
01:28AM 39.5500 -97.0122 249° West 390 449 38,000  Level Kansas City Center
01:29AM 39.5047 -97.1644 249° West 387 445 38,000  Level Kansas City Center
01:30AM 39.4644 -97.2875 247° West 388 447 38,000  Level Kansas City Center
01:31AM 39.4261 -97.4131 248° West 389 448 38,000  Level Kansas City Center
01:32AM 39.3889 -97.5369 249° West 389 448 38,000  Level Kansas City Center
01:33AM 39.3478 -97.6683 248° West 392 451 38,000  Level Kansas City Center
01:34AM 39.3075 -97.7986 248° West 391 450 38,000  Level Kansas City Center
01:35AM 39.2650 -97.9297 247° West 386 444 38,000  Level Kansas City Center
01:36AM 39.2206 -98.0725 248° West 388 447 38,000  Level Kansas City Center
01:37AM 39.1789 -98.2028 248° West 391 450 38,000  Level Kansas City Center
01:38AM 39.1378 -98.3314 248° West 392 451 38,000  Level Kansas City Center
01:39AM 39.0961 -98.4597 247° West 391 450 38,000  Level Kansas City Center
01:40AM 39.0542 -98.5894 247° West 392 451 38,000  Level Kansas City Center
01:41AM 39.0125 -98.7206 248° West 397 457 38,000  Level Kansas City Center
01:42AM 38.9700 -98.8500 247° West 395 455 38,000  Level Kansas City Center
01:43AM 38.9278 -98.9806 247° West 398 458 38,000  Level Kansas City Center
01:44AM 38.8833 -99.1125 247° West 403 464 38,000  Level Kansas City Center
01:45AM 38.8411 -99.2456 248° West 405 466 38,000  Level Kansas City Center
01:46AM 38.7956 -99.3806 247° West 409 471 38,000  Level Kansas City Center
01:47AM 38.7514 -99.5150 247° West 410 472 38,000  Level Kansas City Center
01:48AM 38.7036 -99.6581 247° West 410 472 38,000  Level Kansas City Center
01:49AM 38.6600 -99.7867 247° West 411 473 38,000  Level Kansas City Center
01:50AM 38.6100 -99.9356 247° West 409 471 38,000  Level Kansas City Center
01:51AM 38.5675 -100.0639 247° West 410 472 38,000  Level Kansas City Center
01:52AM 38.5236 -100.1908 246° West 409 471 38,000  Level Kansas City Center
01:53AM 38.4728 -100.3375 246° West 406 467 38,000  Level Kansas City Center
01:54AM 38.4289 -100.4639 246° West 408 470 38,000  Level Kansas City Center
01:55AM 38.3847 -100.5928 246° West 412 474 38,000  Level Kansas City Center
01:56AM 38.3408 -100.7197 246° West 412 474 38,000  Level Kansas City Center
01:57AM 38.2883 -100.8678 246° West 412 474 38,000  Level Kansas City Center
01:58AM 38.2436 -100.9942 246° West 411 473 38,000  Level Kansas City Center
01:59AM 38.1986 -101.1211 246° West 412 474 38,000  Level Kansas City Center
02:00AM 38.1625 -101.2258 246° West 412 474 38,000  Level Denver Center
02:01AM 38.1172 -101.3506 245° Southwest 410 472 38,000  Level Denver Center
02:02AM 38.0814 -101.4533 246° West 404 465 38,000  Level Denver Center
02:03AM 38.0217 -101.6208 246° West 408 470 38,000  Level Denver Center
02:04AM 37.9764 -101.7442 245° Southwest 406 467 38,000  Level Denver Center
02:05AM 37.9231 -101.8903 245° Southwest 409 471 38,000  Level Denver Center
02:06AM 37.8792 -102.0142 246° West 405 466 38,000  Level Denver Center
02:07AM 37.8333 -102.1394 245° Southwest 410 472 38,000  Level Denver Center
02:08AM 37.7803 -102.2858 245° Southwest 410 472 38,000  Level Denver Center
02:09AM 37.7344 -102.4117 245° Southwest 412 474 38,000  Level Denver Center
02:10AM 37.6867 -102.5392 245° Southwest 409 471 38,000  Level Denver Center
02:11AM 37.6408 -102.6628 245° Southwest 406 467 38,000  Level Denver Center
02:12AM 37.5869 -102.8064 245° Southwest 406 467 38,000  Level Denver Center
02:13AM 37.5422 -102.9292 245° Southwest 403 464 38,000  Level Denver Center
02:14AM 37.4956 -103.0533 245° Southwest 408 470 38,000  Level Denver Center
02:15AM 37.4331 -103.2197 245° Southwest 410 472 38,000  Level Denver Center
02:16AM 37.3781 -103.3622 244° Southwest 405 466 38,000  Level Denver Center
02:20AM 37.2067 -103.8114 239° Southwest 400 460 38,000  Level Albuquerque Center
02:20AM 37.1828 -103.8703 243° Southwest 398 458 38,000  Level Denver Center
02:21AM 37.1300 -104.0089 245° Southwest 393 452 38,000  Level Denver Center
02:22AM 37.1067 -104.0675 243° Southwest 391 450 38,000  Level Albuquerque Center
02:23AM 37.0614 -104.1847 244° Southwest 390 449 38,000  Level Albuquerque Center
02:24AM 37.0144 -104.3031 244° Southwest 393 452 38,000  Level Albuquerque Center
02:25AM 36.9603 -104.4425 244° Southwest 397 457 38,000  Level Albuquerque Center
02:25AM 36.9361 -104.5031 243° Southwest 397 457 38,000  Level Denver Center
02:26AM 36.8900 -104.6219 244° Southwest 397 457 38,000  Level Denver Center
02:27AM 36.8653 -104.6822 243° Southwest 394 453 38,000  Level Albuquerque Center
02:28AM 36.8158 -104.8061 244° Southwest 396 456 38,000  Level Albuquerque Center
02:29AM 36.7647 -104.9325 243° Southwest 394 453 38,000  Level Albuquerque Center
02:30AM 36.7183 -105.0528 244° Southwest 397 457 38,000  Level Albuquerque Center
02:31AM 36.6661 -105.1800 243° Southwest 403 464 38,000  Level Albuquerque Center
02:32AM 36.6136 -105.3111 244° Southwest 414 476 38,000  Level Albuquerque Center
02:33AM 36.5617 -105.4378 243° Southwest 411 473 38,000  Level Albuquerque Center
02:34AM 36.5108 -105.5619 243° Southwest 416 479 38,000  Level Albuquerque Center
02:35AM 36.4583 -105.6928 244° Southwest 419 482 38,000  Level Albuquerque Center
02:36AM 36.4050 -105.8233 243° Southwest 422 486 38,000  Level Albuquerque Center
02:37AM 36.3528 -105.9519 243° Southwest 421 484 38,000  Level Albuquerque Center
02:38AM 36.3003 -106.0783 243° Southwest 418 481 38,000  Level Albuquerque Center
02:39AM 36.2483 -106.2028 243° Southwest 414 476 38,000  Level Albuquerque Center
02:40AM 36.1967 -106.3281 243° Southwest 411 473 38,000  Level Albuquerque Center
02:41AM 36.1444 -106.4519 242° Southwest 410 472 38,000  Level Albuquerque Center
02:42AM 36.0878 -106.5897 243° Southwest 408 470 38,000  Level Albuquerque Center
02:43AM 36.0364 -106.7103 242° Southwest 412 474 38,000  Level Albuquerque Center
02:44AM 35.9772 -106.8492 242° Southwest 410 472 38,000  Level Albuquerque Center
02:45AM 35.9258 -106.9689 242° Southwest 412 474 38,000  Level Albuquerque Center
02:46AM 35.8736 -107.0886 242° Southwest 413 475 38,000  Level Albuquerque Center
02:47AM 35.8244 -107.2083 243° Southwest 411 473 38,000  Level Albuquerque Center
02:48AM 35.7639 -107.3492 242° Southwest 414 476 38,000  Level Albuquerque Center
02:49AM 35.7131 -107.4697 243° Southwest 414 476 38,000  Level Albuquerque Center
02:50AM 35.6622 -107.5914 243° Southwest 416 479 38,000  Level Albuquerque Center
02:51AM 35.6031 -107.7336 243° Southwest 417 480 38,000  Level Albuquerque Center
02:52AM 35.5528 -107.8539 243° Southwest 415 478 38,000  Level Albuquerque Center
02:53AM 35.5022 -107.9753 243° Southwest 416 479 38,000  Level Albuquerque Center
02:54AM 35.4508 -108.0953 242° Southwest 414 476 38,000  Level Albuquerque Center
02:55AM 35.3908 -108.2378 243° Southwest 417 480 38,000  Level Albuquerque Center
02:56AM 35.3400 -108.3589 243° Southwest 417 480 38,000  Level Albuquerque Center
02:57AM 35.2878 -108.4808 242° Southwest 419 482 38,000  Level Albuquerque Center
02:58AM 35.2269 -108.6239 243° Southwest 421 484 38,000  Level Albuquerque Center
02:59AM 35.1742 -108.7461 242° Southwest 422 486 38,000  Level Albuquerque Center
03:00AM 35.1217 -108.8675 242° Southwest 421 484 38,000  Level Albuquerque Center
03:01AM 35.0686 -108.9878 242° Southwest 420 483 38,000  Level Albuquerque Center
03:02AM 35.0078 -109.1289 242° Southwest 420 483 38,000  Level Albuquerque Center
03:03AM 34.9547 -109.2494 242° Southwest 420 483 38,000 -300 Level Albuquerque Center
03:04AM 34.9017 -109.3703 242° Southwest 421 484 37,500 -840 Descending Albuquerque Center
03:05AM 34.8289 -109.5017 236° Southwest 421 484 36,400 -1,020 Descending Albuquerque Center
03:06AM 34.7689 -109.6153 237° Southwest 417 480 35,500 -900 Descending Albuquerque Center
03:07AM 34.7081 -109.7281 237° Southwest 416 479 34,600 -780 Descending Albuquerque Center
03:08AM 34.6453 -109.8433 237° Southwest 422 486 34,000 -300 Descending Albuquerque Center
03:09AM 34.5739 -109.9769 237° Southwest 423 487 34,000  Level Albuquerque Center
03:10AM 34.5122 -110.0908 237° Southwest 421 484 34,000  Level Albuquerque Center
03:11AM 34.4494 -110.2050 236° Southwest 424 488 34,000  Level Albuquerque Center
03:12AM 34.3761 -110.3392 237° Southwest 427 491 34,000  Level Albuquerque Center
03:13AM 34.3200 -110.4464 238° Southwest 437 503 34,000 -1,200 Level Albuquerque Center
03:14AM 34.2489 -110.5708 235° Southwest 430 495 31,700 -2,340 Descending Albuquerque Center
03:15AM 34.1825 -110.6867 235° Southwest 425 489 29,300 -2,280 Descending Albuquerque Center
03:16AM 34.1247 -110.7933 237° Southwest 411 473 27,200 -2,160 Descending Albuquerque Center
03:17AM 34.0633 -110.9017 236° Southwest 397 457 25,000 -2,160 Descending Albuquerque Center
03:18AM 33.9908 -110.9889 225° Southwest 374 430 22,900 -2,040 Descending Albuquerque Center
03:19AM 33.9175 -111.0731 224° Southwest 364 419 21,000 -1,920 Descending Albuquerque Center
03:20AM 33.8594 -111.1678 234° Southwest 343 395 19,100 -2,100 Descending Albuquerque Center
03:21AM 33.8181 -111.2653 243° Southwest 336 387 16,800 -2,280 Descending Albuquerque Center
03:22AM 33.7803 -111.3683 246° West 337 388 14,600 -2,220 Descending Albuquerque Center
03:23AM 33.7431 -111.4706 246° West 334 384 12,400 -1,800 Descending Albuquerque Center
03:24AM 33.7078 -111.5703 247° West 325 374 11,000 -1,200 Descending Albuquerque Center
03:25AM 33.6767 -111.6586 247° West 289 333 10,100 -540 Descending Albuquerque Center
03:26AM 33.6481 -111.7414 247° West 270 311 10,000 -60 Descending Albuquerque Center
03:27AM 33.6200 -111.8236 248° West 266 306 10,000 -720 Level Albuquerque Center
03:28AM 33.6000 -111.9000 253° West 270 311 8,700 -1,560 Descending Phoenix TRACON
03:29AM 33.5667 -111.9833 244° Southwest 264 304 7,200 -1,620 Descending Phoenix TRACON
03:30AM 33.5333 -112.0667 244° Southwest 265 305 5,500 -1,140 Descending Phoenix TRACON
03:31AM 33.5167 -112.1500 257° West 236 272 5,000 -1,200 Descending Phoenix TRACON
03:32AM 33.4500 -112.1500 180° South 207 238 3,200 -1,200 Descending Phoenix TRACON
03:33AM 33.4333 -112.1167 121° Southeast 159 183 2,600 -720 Descending Phoenix TRACON
03:34AM 33.4333 -112.0667 90° East 140 161 1,800 -840 Descending Phoenix TRACON